sensor_id;sensor_type;location;lat;lon;timestamp;pressure;altitude;pressure_sealevel;temperature;humidity
9969;BME280;5025;48.890;9.278;2023-10-19T00:00:04;97196.91;;;11.08;98.24
9969;BME280;5025;48.890;9.278;2023-10-19T00:02:44;97193.94;;;11.09;98.16
9969;BME280;5025;48.890;9.278;2023-10-19T00:05:10;97192.03;;;11.10;97.89
9969;BME280;5025;48.890;9.278;2023-10-19T00:07:35;97199.09;;;11.11;98.10
9969;BME280;5025;48.890;9.278;2023-10-19T00:10:00;97196.38;;;11.11;98.13
9969;BME280;5025;48.890;9.278;2023-10-19T00:12:28;97195.28;;;11.12;98.18
9969;BME280;5025;48.890;9.278;2023-10-19T00:14:54;97192.31;;;11.13;98.12
9969;BME280;5025;48.890;9.278;2023-10-19T00:17:19;97183.13;;;11.15;98.02
9969;BME280;5025;48.890;9.278;2023-10-19T00:19:46;97186.63;;;11.15;97.82
9969;BME280;5025;48.890;9.278;2023-10-19T00:22:31;97174.22;;;11.14;98.02
9969;BME280;5025;48.890;9.278;2023-10-19T00:25:01;97177.19;;;11.18;98.01
9969;BME280;5025;48.890;9.278;2023-10-19T00:27:28;97170.16;;;11.17;97.90
9969;BME280;5025;48.890;9.278;2023-10-19T00:29:54;97172.56;;;11.18;97.95
9969;BME280;5025;48.890;9.278;2023-10-19T00:32:27;97168.28;;;11.17;97.87
9969;BME280;5025;48.890;9.278;2023-10-19T00:34:54;97169.06;;;11.18;98.01
9969;BME280;5025;48.890;9.278;2023-10-19T00:37:20;97170.72;;;11.19;98.11
9969;BME280;5025;48.890;9.278;2023-10-19T00:39:52;97171.25;;;11.16;98.00
9969;BME280;5025;48.890;9.278;2023-10-19T00:42:19;97172.84;;;11.17;98.35
9969;BME280;5025;48.890;9.278;2023-10-19T00:44:49;97177.19;;;11.18;98.28
9969;BME280;5025;48.890;9.278;2023-10-19T00:47:15;97165.56;;;11.17;98.25
9969;BME280;5025;48.890;9.278;2023-10-19T00:49:45;97170.97;;;11.17;98.64
9969;BME280;5025;48.890;9.278;2023-10-19T00:52:12;97168.56;;;11.16;98.45
9969;BME280;5025;48.890;9.278;2023-10-19T00:54:44;97164.22;;;11.15;99.08
9969;BME280;5025;48.890;9.278;2023-10-19T00:57:18;97160.16;;;11.17;99.20
9969;BME280;5025;48.890;9.278;2023-10-19T00:59:46;97146.09;;;11.15;99.30
9969;BME280;5025;48.890;9.278;2023-10-19T01:02:25;97131.53;;;11.16;99.52
9969;BME280;5025;48.890;9.278;2023-10-19T01:04:53;97125.84;;;11.18;99.92
9969;BME280;5025;48.890;9.278;2023-10-19T01:07:22;97121.25;;;11.18;100.00
9969;BME280;5025;48.890;9.278;2023-10-19T01:09:54;97108.28;;;11.15;100.00
9969;BME280;5025;48.890;9.278;2023-10-19T01:12:22;97105.59;;;11.15;100.00
9969;BME280;5025;48.890;9.278;2023-10-19T01:17:31;97095.56;;;11.21;100.00
9969;BME280;5025;48.890;9.278;2023-10-19T01:19:58;97096.66;;;11.25;100.00
9969;BME280;5025;48.890;9.278;2023-10-19T01:22:24;97105.00;;;11.28;100.00
9969;BME280;5025;48.890;9.278;2023-10-19T01:24:51;97099.59;;;11.28;100.00
9969;BME280;5025;48.890;9.278;2023-10-19T01:27:18;97104.22;;;11.28;100.00
9969;BME280;5025;48.890;9.278;2023-10-19T01:29:43;97098.25;;;11.26;100.00
9969;BME280;5025;48.890;9.278;2023-10-19T01:32:08;97094.78;;;11.20;100.00
9969;BME280;5025;48.890;9.278;2023-10-19T01:34:36;97092.06;;;11.20;100.00
9969;BME280;5025;48.890;9.278;2023-10-19T01:37:02;97088.56;;;11.25;100.00
9969;BME280;5025;48.890;9.278;2023-10-19T01:39:30;97078.28;;;11.27;100.00
9969;BME280;5025;48.890;9.278;2023-10-19T01:41:56;97078.50;;;11.30;100.00
9969;BME280;5025;48.890;9.278;2023-10-19T01:44:24;97080.16;;;11.32;100.00
9969;BME280;5025;48.890;9.278;2023-10-19T01:46:50;97069.31;;;11.37;100.00
9969;BME280;5025;48.890;9.278;2023-10-19T01:49:15;97077.97;;;11.39;100.00
9969;BME280;5025;48.890;9.278;2023-10-19T01:51:51;97068.19;;;11.43;100.00
9969;BME280;5025;48.890;9.278;2023-10-19T01:54:16;97065.50;;;11.43;100.00
9969;BME280;5025;48.890;9.278;2023-10-19T01:56:43;97073.06;;;11.46;100.00
9969;BME280;5025;48.890;9.278;2023-10-19T01:59:09;97075.75;;;11.46;100.00
9969;BME280;5025;48.890;9.278;2023-10-19T02:01:34;97066.56;;;11.47;100.00
9969;BME280;5025;48.890;9.278;2023-10-19T02:04:04;97072.50;;;11.49;100.00
9969;BME280;5025;48.890;9.278;2023-10-19T02:06:33;97063.31;;;11.50;100.00
9969;BME280;5025;48.890;9.278;2023-10-19T02:09:01;97058.72;;;11.51;100.00
9969;BME280;5025;48.890;9.278;2023-10-19T02:11:34;97051.16;;;11.53;100.00
9969;BME280;5025;48.890;9.278;2023-10-19T02:14:03;97058.16;;;11.54;100.00
9969;BME280;5025;48.890;9.278;2023-10-19T02:16:30;97061.69;;;11.54;100.00
9969;BME280;5025;48.890;9.278;2023-10-19T02:18:56;97052.47;;;11.55;100.00
9969;BME280;5025;48.890;9.278;2023-10-19T02:21:21;97049.50;;;11.57;100.00
9969;BME280;5025;48.890;9.278;2023-10-19T02:23:50;97047.63;;;11.57;100.00
9969;BME280;5025;48.890;9.278;2023-10-19T02:26:19;97043.28;;;11.56;100.00
9969;BME280;5025;48.890;9.278;2023-10-19T02:28:56;97038.41;;;11.58;100.00
9969;BME280;5025;48.890;9.278;2023-10-19T02:31:22;97034.91;;;11.58;100.00
9969;BME280;5025;48.890;9.278;2023-10-19T02:33:51;97036.53;;;11.59;100.00
9969;BME280;5025;48.890;9.278;2023-10-19T02:36:18;97034.63;;;11.59;100.00
9969;BME280;5025;48.890;9.278;2023-10-19T02:38:45;97029.22;;;11.59;100.00
9969;BME280;5025;48.890;9.278;2023-10-19T02:41:15;97021.91;;;11.60;100.00
9969;BME280;5025;48.890;9.278;2023-10-19T02:43:41;97022.72;;;11.60;100.00
9969;BME280;5025;48.890;9.278;2023-10-19T02:46:10;97027.03;;;11.61;100.00
9969;BME280;5025;48.890;9.278;2023-10-19T02:48:35;97020.53;;;11.62;100.00
9969;BME280;5025;48.890;9.278;2023-10-19T02:51:01;97022.97;;;11.64;100.00
9969;BME280;5025;48.890;9.278;2023-10-19T02:53:31;97017.00;;;11.67;100.00
9969;BME280;5025;48.890;9.278;2023-10-19T02:55:57;97012.41;;;11.68;100.00
9969;BME280;5025;48.890;9.278;2023-10-19T02:58:24;97014.03;;;11.69;100.00
9969;BME280;5025;48.890;9.278;2023-10-19T03:00:53;97007.53;;;11.70;100.00
9969;BME280;5025;48.890;9.278;2023-10-19T03:03:18;97010.19;;;11.75;100.00
9969;BME280;5025;48.890;9.278;2023-10-19T03:05:43;97014.78;;;11.79;100.00
9969;BME280;5025;48.890;9.278;2023-10-19T03:08:08;97013.13;;;11.83;100.00
9969;BME280;5025;48.890;9.278;2023-10-19T03:10:34;97007.44;;;11.85;100.00
9969;BME280;5025;48.890;9.278;2023-10-19T03:13:07;96999.00;;;11.87;100.00
9969;BME280;5025;48.890;9.278;2023-10-19T03:15:32;97002.25;;;11.89;100.00
9969;BME280;5025;48.890;9.278;2023-10-19T03:17:58;97001.97;;;11.90;100.00
9969;BME280;5025;48.890;9.278;2023-10-19T03:20:25;97004.69;;;11.90;100.00
9969;BME280;5025;48.890;9.278;2023-10-19T03:22:52;97000.88;;;11.91;100.00
9969;BME280;5025;48.890;9.278;2023-10-19T03:25:17;96993.88;;;11.90;100.00
9969;BME280;5025;48.890;9.278;2023-10-19T03:28:01;96988.47;;;11.90;100.00
9969;BME280;5025;48.890;9.278;2023-10-19T03:30:35;96979.00;;;11.88;100.00
9969;BME280;5025;48.890;9.278;2023-10-19T03:33:05;96975.50;;;11.87;100.00
9969;BME280;5025;48.890;9.278;2023-10-19T03:35:33;96982.22;;;11.90;100.00
9969;BME280;5025;48.890;9.278;2023-10-19T03:38:00;96976.81;;;11.90;100.00
9969;BME280;5025;48.890;9.278;2023-10-19T03:40:28;96981.41;;;11.94;100.00
9969;BME280;5025;48.890;9.278;2023-10-19T03:42:56;96982.53;;;11.93;100.00
9969;BME280;5025;48.890;9.278;2023-10-19T03:45:21;96982.53;;;11.93;100.00
9969;BME280;5025;48.890;9.278;2023-10-19T03:47:50;96975.47;;;11.92;100.00
9969;BME280;5025;48.890;9.278;2023-10-19T03:50:15;96980.06;;;11.92;100.00
9969;BME280;5025;48.890;9.278;2023-10-19T03:52:45;96983.59;;;11.92;100.00
9969;BME280;5025;48.890;9.278;2023-10-19T03:55:10;96974.66;;;11.92;100.00
9969;BME280;5025;48.890;9.278;2023-10-19T03:57:36;96960.88;;;11.93;100.00
9969;BME280;5025;48.890;9.278;2023-10-19T04:00:06;96971.41;;;11.95;100.00
9969;BME280;5025;48.890;9.278;2023-10-19T04:02:40;96960.59;;;11.95;100.00
9969;BME280;5025;48.890;9.278;2023-10-19T04:05:08;96945.69;;;11.97;100.00
9969;BME280;5025;48.890;9.278;2023-10-19T04:07:35;96955.94;;;12.00;100.00
9969;BME280;5025;48.890;9.278;2023-10-19T04:10:00;96947.81;;;12.00;100.00
9969;BME280;5025;48.890;9.278;2023-10-19T04:12:31;96939.19;;;11.98;100.00
9969;BME280;5025;48.890;9.278;2023-10-19T04:14:57;96939.69;;;12.00;100.00
9969;BME280;5025;48.890;9.278;2023-10-19T04:17:23;96937.25;;;12.04;100.00
9969;BME280;5025;48.890;9.278;2023-10-19T04:19:49;96931.06;;;11.98;100.00
9969;BME280;5025;48.890;9.278;2023-10-19T04:22:19;96930.00;;;11.94;100.00
9969;BME280;5025;48.890;9.278;2023-10-19T04:24:51;96925.16;;;11.96;100.00
9969;BME280;5025;48.890;9.278;2023-10-19T04:27:17;96926.75;;;11.97;100.00
9969;BME280;5025;48.890;9.278;2023-10-19T04:29:42;96919.19;;;11.94;100.00
9969;BME280;5025;48.890;9.278;2023-10-19T04:32:09;96914.31;;;11.91;100.00
9969;BME280;5025;48.890;9.278;2023-10-19T04:34:35;96914.31;;;11.91;100.00
9969;BME280;5025;48.890;9.278;2023-10-19T04:37:02;96914.88;;;11.88;100.00
9969;BME280;5025;48.890;9.278;2023-10-19T04:39:28;96908.50;;;11.79;100.00
9969;BME280;5025;48.890;9.278;2023-10-19T04:41:55;96912.84;;;11.75;100.00
9969;BME280;5025;48.890;9.278;2023-10-19T04:44:21;96909.09;;;11.71;100.00
9969;BME280;5025;48.890;9.278;2023-10-19T04:46:46;96910.19;;;11.70;100.00
9969;BME280;5025;48.890;9.278;2023-10-19T04:49:11;96910.75;;;11.66;100.00
9969;BME280;5025;48.890;9.278;2023-10-19T04:51:36;96913.47;;;11.66;100.00
9969;BME280;5025;48.890;9.278;2023-10-19T04:54:04;96908.34;;;11.65;100.00
9969;BME280;5025;48.890;9.278;2023-10-19T04:56:30;96912.41;;;11.62;100.00
9969;BME280;5025;48.890;9.278;2023-10-19T04:58:57;96914.31;;;11.62;100.00
9969;BME280;5025;48.890;9.278;2023-10-19T05:01:22;96910.78;;;11.61;100.00
9969;BME280;5025;48.890;9.278;2023-10-19T05:03:47;96905.66;;;11.60;100.00
9969;BME280;5025;48.890;9.278;2023-10-19T05:06:12;96908.34;;;11.60;100.00
9969;BME280;5025;48.890;9.278;2023-10-19T05:08:38;96911.88;;;11.60;100.00
9969;BME280;5025;48.890;9.278;2023-10-19T05:11:04;96893.81;;;11.56;100.00
9969;BME280;5025;48.890;9.278;2023-10-19T05:13:31;96900.28;;;11.55;100.00
9969;BME280;5025;48.890;9.278;2023-10-19T05:15:58;96903.00;;;11.55;100.00
9969;BME280;5025;48.890;9.278;2023-10-19T05:18:25;96894.38;;;11.53;100.00
9969;BME280;5025;48.890;9.278;2023-10-19T05:20:51;96893.53;;;11.52;100.00
9969;BME280;5025;48.890;9.278;2023-10-19T05:23:23;96905.97;;;11.53;100.00
9969;BME280;5025;48.890;9.278;2023-10-19T05:25:52;96902.47;;;11.53;100.00
9969;BME280;5025;48.890;9.278;2023-10-19T05:28:19;96915.16;;;11.52;100.00
9969;BME280;5025;48.890;9.278;2023-10-19T05:30:44;96906.25;;;11.52;100.00
9969;BME280;5025;48.890;9.278;2023-10-19T05:33:09;96916.00;;;11.47;100.00
9969;BME280;5025;48.890;9.278;2023-10-19T05:35:34;96910.03;;;11.51;100.00
9969;BME280;5025;48.890;9.278;2023-10-19T05:38:08;96914.41;;;11.46;100.00
9969;BME280;5025;48.890;9.278;2023-10-19T05:40:33;96921.41;;;11.47;100.00
9969;BME280;5025;48.890;9.278;2023-10-19T05:42:59;96919.00;;;11.46;100.00
9969;BME280;5025;48.890;9.278;2023-10-19T05:45:26;96920.63;;;11.47;100.00
9969;BME280;5025;48.890;9.278;2023-10-19T05:47:53;96918.19;;;11.45;100.00
9969;BME280;5025;48.890;9.278;2023-10-19T05:50:18;96918.19;;;11.45;100.00
9969;BME280;5025;48.890;9.278;2023-10-19T05:52:45;96917.41;;;11.45;100.00
9969;BME280;5025;48.890;9.278;2023-10-19T05:55:10;96920.38;;;11.43;100.00
9969;BME280;5025;48.890;9.278;2023-10-19T05:57:37;96928.75;;;11.42;100.00
9969;BME280;5025;48.890;9.278;2023-10-19T06:00:10;96937.94;;;11.41;100.00
9969;BME280;5025;48.890;9.278;2023-10-19T06:02:44;96928.50;;;11.38;100.00
9969;BME280;5025;48.890;9.278;2023-10-19T06:05:10;96932.03;;;11.39;100.00
9969;BME280;5025;48.890;9.278;2023-10-19T06:07:35;96924.72;;;11.39;100.00
9969;BME280;5025;48.890;9.278;2023-10-19T06:10:01;96919.31;;;11.39;100.00
9969;BME280;5025;48.890;9.278;2023-10-19T06:12:30;96924.44;;;11.41;100.00
9969;BME280;5025;48.890;9.278;2023-10-19T06:14:56;96928.22;;;11.40;100.00
9969;BME280;5025;48.890;9.278;2023-10-19T06:17:21;96926.34;;;11.40;100.00
9969;BME280;5025;48.890;9.278;2023-10-19T06:19:46;96925.22;;;11.41;100.00
9969;BME280;5025;48.890;9.278;2023-10-19T06:22:12;96928.75;;;11.42;100.00
9969;BME280;5025;48.890;9.278;2023-10-19T06:24:37;96927.94;;;11.41;100.00
9969;BME280;5025;48.890;9.278;2023-10-19T06:27:03;96928.19;;;11.45;100.00
9969;BME280;5025;48.890;9.278;2023-10-19T06:29:29;96929.53;;;11.47;100.00
9969;BME280;5025;48.890;9.278;2023-10-19T06:31:54;96931.66;;;11.51;100.00
9969;BME280;5025;48.890;9.278;2023-10-19T06:34:20;96941.13;;;11.53;100.00
9969;BME280;5025;48.890;9.278;2023-10-19T06:36:45;96933.00;;;11.53;100.00
9969;BME280;5025;48.890;9.278;2023-10-19T06:39:10;96936.28;;;11.50;100.00
9969;BME280;5025;48.890;9.278;2023-10-19T06:41:38;96939.50;;;11.52;100.00
9969;BME280;5025;48.890;9.278;2023-10-19T06:44:04;96941.13;;;11.53;100.00
9969;BME280;5025;48.890;9.278;2023-10-19T06:46:31;96938.41;;;11.53;100.00
9969;BME280;5025;48.890;9.278;2023-10-19T06:48:56;96933.00;;;11.53;100.00
9969;BME280;5025;48.890;9.278;2023-10-19T06:51:25;96938.94;;;11.55;100.00
9969;BME280;5025;48.890;9.278;2023-10-19T06:53:52;96928.94;;;11.56;100.00
9969;BME280;5025;48.890;9.278;2023-10-19T06:56:17;96930.53;;;11.57;100.00
9969;BME280;5025;48.890;9.278;2023-10-19T06:58:43;96928.66;;;11.57;100.00
9969;BME280;5025;48.890;9.278;2023-10-19T07:01:09;96929.75;;;11.56;100.00
9969;BME280;5025;48.890;9.278;2023-10-19T07:03:34;96932.97;;;11.58;100.00
9969;BME280;5025;48.890;9.278;2023-10-19T07:05:59;96925.41;;;11.60;100.00
9969;BME280;5025;48.890;9.278;2023-10-19T07:08:30;96925.91;;;11.62;100.00
9969;BME280;5025;48.890;9.278;2023-10-19T07:10:55;96922.94;;;11.64;100.00
9969;BME280;5025;48.890;9.278;2023-10-19T07:13:20;96917.25;;;11.65;100.00
9969;BME280;5025;48.890;9.278;2023-10-19T07:15:47;96918.88;;;11.66;100.00
9969;BME280;5025;48.890;9.278;2023-10-19T07:18:14;96928.06;;;11.65;100.00
9969;BME280;5025;48.890;9.278;2023-10-19T07:20:40;96929.97;;;11.65;100.00
9969;BME280;5025;48.890;9.278;2023-10-19T07:23:07;96917.25;;;11.65;100.00
9969;BME280;5025;48.890;9.278;2023-10-19T07:25:36;96915.06;;;11.68;100.00
9969;BME280;5025;48.890;9.278;2023-10-19T07:28:14;96918.03;;;11.71;100.00
9969;BME280;5025;48.890;9.278;2023-10-19T07:30:41;96918.03;;;11.71;100.00
9969;BME280;5025;48.890;9.278;2023-10-19T07:33:11;96925.84;;;11.73;100.00
9969;BME280;5025;48.890;9.278;2023-10-19T07:35:42;96924.75;;;11.74;100.00
9969;BME280;5025;48.890;9.278;2023-10-19T07:38:09;96917.19;;;11.76;100.00
9969;BME280;5025;48.890;9.278;2023-10-19T07:40:35;96915.00;;;11.78;100.00
9969;BME280;5025;48.890;9.278;2023-10-19T07:43:01;96920.63;;;11.81;100.00
9969;BME280;5025;48.890;9.278;2023-10-19T07:45:27;96915.16;;;11.87;100.00
9969;BME280;5025;48.890;9.278;2023-10-19T07:47:52;96916.50;;;11.89;100.00
9969;BME280;5025;48.890;9.278;2023-10-19T07:50:18;96909.75;;;11.92;100.00
9969;BME280;5025;48.890;9.278;2023-10-19T07:52:50;96904.59;;;11.95;100.00
9969;BME280;5025;48.890;9.278;2023-10-19T07:55:16;96904.53;;;12.00;100.00
9969;BME280;5025;48.890;9.278;2023-10-19T07:57:42;96905.06;;;12.02;100.00
9969;BME280;5025;48.890;9.278;2023-10-19T08:00:09;96912.34;;;12.07;100.00
9969;BME280;5025;48.890;9.278;2023-10-19T08:02:36;96909.06;;;12.10;100.00
9969;BME280;5025;48.890;9.278;2023-10-19T08:05:03;96893.34;;;12.12;100.00
9969;BME280;5025;48.890;9.278;2023-10-19T08:07:29;96892.50;;;12.17;100.00
9969;BME280;5025;48.890;9.278;2023-10-19T08:09:55;96886.50;;;12.20;100.00
9969;BME280;5025;48.890;9.278;2023-10-19T08:12:24;96897.81;;;12.27;100.00
9969;BME280;5025;48.890;9.278;2023-10-19T08:14:51;96893.97;;;12.33;100.00
9969;BME280;5025;48.890;9.278;2023-10-19T08:17:16;96897.16;;;12.35;100.00
9969;BME280;5025;48.890;9.278;2023-10-19T08:19:42;96888.47;;;12.38;100.00
9969;BME280;5025;48.890;9.278;2023-10-19T08:22:07;96892.25;;;12.43;100.00
9969;BME280;5025;48.890;9.278;2023-10-19T08:24:32;96896.78;;;12.47;100.00
9969;BME280;5025;48.890;9.278;2023-10-19T08:27:00;96897.53;;;12.53;100.00
9969;BME280;5025;48.890;9.278;2023-10-19T08:29:25;96894.78;;;12.58;100.00
9969;BME280;5025;48.890;9.278;2023-10-19T08:31:51;96899.53;;;12.66;100.00
9969;BME280;5025;48.890;9.278;2023-10-19T08:34:16;96890.78;;;12.74;100.00
9969;BME280;5025;48.890;9.278;2023-10-19T08:36:42;96893.94;;;12.82;100.00
9969;BME280;5025;48.890;9.278;2023-10-19T08:39:08;96900.13;;;12.87;100.00
9969;BME280;5025;48.890;9.278;2023-10-19T08:41:35;96902.69;;;12.98;100.00
9969;BME280;5025;48.890;9.278;2023-10-19T08:44:02;96897.44;;;13.06;100.00
9969;BME280;5025;48.890;9.278;2023-10-19T08:46:28;96891.94;;;13.12;100.00
9969;BME280;5025;48.890;9.278;2023-10-19T08:48:55;96879.41;;;13.16;100.00
9969;BME280;5025;48.890;9.278;2023-10-19T08:51:22;96884.69;;;13.26;100.00
9969;BME280;5025;48.890;9.278;2023-10-19T08:53:52;96884.06;;;13.34;100.00
9969;BME280;5025;48.890;9.278;2023-10-19T08:56:19;96882.31;;;13.43;100.00
9969;BME280;5025;48.890;9.278;2023-10-19T08:58:44;96886.75;;;13.53;100.00
9969;BME280;5025;48.890;9.278;2023-10-19T09:01:11;96881.78;;;13.60;100.00
9969;BME280;5025;48.890;9.278;2023-10-19T09:03:37;96881.31;;;13.72;100.00
9969;BME280;5025;48.890;9.278;2023-10-19T09:06:04;96868.38;;;13.83;100.00
9969;BME280;5025;48.890;9.278;2023-10-19T09:08:30;96873.03;;;13.96;100.00
9969;BME280;5025;48.890;9.278;2023-10-19T09:11:08;96869.28;;;14.11;100.00
9969;BME280;5025;48.890;9.278;2023-10-19T09:16:12;96863.06;;;14.39;100.00
9969;BME280;5025;48.890;9.278;2023-10-19T09:18:37;96858.41;;;14.53;100.00
9969;BME280;5025;48.890;9.278;2023-10-19T09:21:03;96868.50;;;14.66;100.00
9969;BME280;5025;48.890;9.278;2023-10-19T09:23:32;96860.97;;;14.77;100.00
9969;BME280;5025;48.890;9.278;2023-10-19T09:25:59;96862.88;;;14.91;100.00
9969;BME280;5025;48.890;9.278;2023-10-19T09:28:28;96861.72;;;15.05;100.00
9969;BME280;5025;48.890;9.278;2023-10-19T09:30:53;96848.72;;;15.16;100.00
9969;BME280;5025;48.890;9.278;2023-10-19T09:33:21;96856.53;;;15.32;100.00
9969;BME280;5025;48.890;9.278;2023-10-19T09:35:47;96854.88;;;15.45;100.00
9969;BME280;5025;48.890;9.278;2023-10-19T09:38:17;96856.06;;;15.52;100.00
9969;BME280;5025;48.890;9.278;2023-10-19T09:40:51;96856.09;;;15.61;100.00
9969;BME280;5025;48.890;9.278;2023-10-19T09:43:25;96849.25;;;15.64;100.00
9969;BME280;5025;48.890;9.278;2023-10-19T09:45:57;96843.69;;;15.69;100.00
9969;BME280;5025;48.890;9.278;2023-10-19T09:48:25;96833.97;;;15.76;100.00
9969;BME280;5025;48.890;9.278;2023-10-19T09:50:53;96829.72;;;15.84;100.00
9969;BME280;5025;48.890;9.278;2023-10-19T09:53:23;96824.81;;;15.95;100.00
9969;BME280;5025;48.890;9.278;2023-10-19T09:55:51;96827.31;;;16.14;100.00
9969;BME280;5025;48.890;9.278;2023-10-19T09:58:21;96826.56;;;16.22;100.00
9969;BME280;5025;48.890;9.278;2023-10-19T10:00:48;96833.97;;;16.30;100.00
9969;BME280;5025;48.890;9.278;2023-10-19T10:03:46;96826.16;;;16.38;100.00
9969;BME280;5025;48.890;9.278;2023-10-19T10:06:14;96830.97;;;16.41;100.00
9969;BME280;5025;48.890;9.278;2023-10-19T10:08:44;96831.44;;;16.43;100.00
9969;BME280;5025;48.890;9.278;2023-10-19T10:11:23;96822.66;;;16.46;100.00
9969;BME280;5025;48.890;9.278;2023-10-19T10:13:50;96821.38;;;16.52;100.00
9969;BME280;5025;48.890;9.278;2023-10-19T10:16:28;96823.78;;;16.54;100.00
9969;BME280;5025;48.890;9.278;2023-10-19T10:19:04;96814.50;;;16.55;100.00
9969;BME280;5025;48.890;9.278;2023-10-19T10:21:29;96819.13;;;16.54;100.00
9969;BME280;5025;48.890;9.278;2023-10-19T10:24:03;96813.53;;;16.51;100.00
9969;BME280;5025;48.890;9.278;2023-10-19T10:26:30;96814.63;;;16.49;100.00
9969;BME280;5025;48.890;9.278;2023-10-19T10:29:23;96812.53;;;16.46;100.00
9969;BME280;5025;48.890;9.278;2023-10-19T10:31:53;96809.19;;;16.41;100.00
9969;BME280;5025;48.890;9.278;2023-10-19T10:34:42;96802.91;;;16.40;100.00
9969;BME280;5025;48.890;9.278;2023-10-19T10:37:11;96809.19;;;16.41;100.00
9969;BME280;5025;48.890;9.278;2023-10-19T10:39:39;96800.84;;;16.46;100.00
9969;BME280;5025;48.890;9.278;2023-10-19T10:42:08;96803.25;;;16.47;100.00
9969;BME280;5025;48.890;9.278;2023-10-19T10:44:41;96806.78;;;16.48;100.00
9969;BME280;5025;48.890;9.278;2023-10-19T10:47:08;96804.69;;;16.45;100.00
9969;BME280;5025;48.890;9.278;2023-10-19T10:49:51;96801.31;;;16.48;100.00
9969;BME280;5025;48.890;9.278;2023-10-19T10:52:35;96797.97;;;16.51;100.00
9969;BME280;5025;48.890;9.278;2023-10-19T10:55:08;96796.53;;;16.54;100.00
9969;BME280;5025;48.890;9.278;2023-10-19T10:57:37;96800.06;;;16.54;100.00
9969;BME280;5025;48.890;9.278;2023-10-19T11:00:07;96801.69;;;16.55;100.00
9969;BME280;5025;48.890;9.278;2023-10-19T11:02:36;96800.38;;;16.53;100.00
9969;BME280;5025;48.890;9.278;2023-10-19T11:05:05;96806.66;;;16.53;100.00
9969;BME280;5025;48.890;9.278;2023-10-19T11:07:36;96799.09;;;16.50;100.00
9969;BME280;5025;48.890;9.278;2023-10-19T11:10:02;96812.41;;;16.52;100.00
9969;BME280;5025;48.890;9.278;2023-10-19T11:12:27;96808.22;;;16.45;100.00
9969;BME280;5025;48.890;9.278;2023-10-19T11:14:58;96810.94;;;16.45;99.98
9969;BME280;5025;48.890;9.278;2023-10-19T11:17:28;96817.50;;;16.44;99.75
9969;BME280;5025;48.890;9.278;2023-10-19T11:19:58;96814.63;;;16.41;99.88
9969;BME280;5025;48.890;9.278;2023-10-19T11:22:24;96809.81;;;16.38;99.74
9969;BME280;5025;48.890;9.278;2023-10-19T11:24:51;96806.88;;;16.34;99.61
9969;BME280;5025;48.890;9.278;2023-10-19T11:27:27;96806.56;;;16.36;99.54
9969;BME280;5025;48.890;9.278;2023-10-19T11:29:59;96806.56;;;16.36;99.22
9969;BME280;5025;48.890;9.278;2023-10-19T11:32:36;96803.22;;;16.30;98.99
9969;BME280;5025;48.890;9.278;2023-10-19T11:35:05;96807.84;;;16.29;99.17
9969;BME280;5025;48.890;9.278;2023-10-19T11:37:46;96813.59;;;16.28;98.93
9969;BME280;5025;48.890;9.278;2023-10-19T11:40:11;96817.78;;;16.25;99.16
9969;BME280;5025;48.890;9.278;2023-10-19T11:42:37;96815.66;;;16.22;99.17
9969;BME280;5025;48.890;9.278;2023-10-19T11:45:02;96803.00;;;16.18;99.38
9969;BME280;5025;48.890;9.278;2023-10-19T11:47:28;96807.13;;;16.15;99.56
9969;BME280;5025;48.890;9.278;2023-10-19T11:49:53;96812.22;;;16.08;99.67
9969;BME280;5025;48.890;9.278;2023-10-19T11:52:19;96807.41;;;16.05;100.00
9969;BME280;5025;48.890;9.278;2023-10-19T11:54:44;96814.63;;;16.01;100.00
9969;BME280;5025;48.890;9.278;2023-10-19T11:57:09;96800.00;;;15.97;100.00
9969;BME280;5025;48.890;9.278;2023-10-19T11:59:35;96802.25;;;15.94;100.00
9969;BME280;5025;48.890;9.278;2023-10-19T12:02:00;96805.09;;;15.89;100.00
9969;BME280;5025;48.890;9.278;2023-10-19T12:04:28;96799.16;;;15.87;100.00
9969;BME280;5025;48.890;9.278;2023-10-19T12:06:54;96798.69;;;15.85;100.00
9969;BME280;5025;48.890;9.278;2023-10-19T12:09:20;96782.97;;;15.82;100.00
9969;BME280;5025;48.890;9.278;2023-10-19T12:11:50;96771.59;;;15.80;100.00
9969;BME280;5025;48.890;9.278;2023-10-19T12:14:18;96766.25;;;15.75;100.00
9969;BME280;5025;48.890;9.278;2023-10-19T12:16:44;96755.97;;;15.72;100.00
9969;BME280;5025;48.890;9.278;2023-10-19T12:19:10;96750.06;;;15.70;100.00
9969;BME280;5025;48.890;9.278;2023-10-19T12:21:36;96752.59;;;15.66;100.00
9969;BME280;5025;48.890;9.278;2023-10-19T12:24:03;96747.97;;;15.67;100.00
9969;BME280;5025;48.890;9.278;2023-10-19T12:26:30;96756.44;;;15.65;100.00
9969;BME280;5025;48.890;9.278;2023-10-19T12:28:55;96758.69;;;15.63;100.00
9969;BME280;5025;48.890;9.278;2023-10-19T12:31:21;96740.56;;;15.58;100.00
9969;BME280;5025;48.890;9.278;2023-10-19T12:33:48;96735.91;;;15.59;100.00
9969;BME280;5025;48.890;9.278;2023-10-19T12:36:13;96728.06;;;15.57;100.00
9969;BME280;5025;48.890;9.278;2023-10-19T12:38:54;96716.38;;;15.57;100.00
9969;BME280;5025;48.890;9.278;2023-10-19T12:41:23;96715.56;;;15.56;100.00
9969;BME280;5025;48.890;9.278;2023-10-19T12:43:52;96719.41;;;15.55;100.00
9969;BME280;5025;48.890;9.278;2023-10-19T12:46:18;96722.44;;;15.54;100.00
9969;BME280;5025;48.890;9.278;2023-10-19T12:48:45;96719.22;;;15.52;100.00
9969;BME280;5025;48.890;9.278;2023-10-19T12:51:13;96708.97;;;15.49;100.00
9969;BME280;5025;48.890;9.278;2023-10-19T12:53:39;96709.78;;;15.49;100.00
9969;BME280;5025;48.890;9.278;2023-10-19T12:56:05;96717.44;;;15.47;100.00
9969;BME280;5025;48.890;9.278;2023-10-19T12:58:34;96712.31;;;15.46;100.00
9969;BME280;5025;48.890;9.278;2023-10-19T13:01:00;96716.66;;;15.47;100.00
9969;BME280;5025;48.890;9.278;2023-10-19T13:03:25;96721.28;;;15.46;100.00
9969;BME280;5025;48.890;9.278;2023-10-19T13:05:56;96719.38;;;15.47;100.00
9969;BME280;5025;48.890;9.278;2023-10-19T13:08:23;96722.88;;;15.47;100.00
9969;BME280;5025;48.890;9.278;2023-10-19T13:10:52;96732.16;;;15.46;100.00
9969;BME280;5025;48.890;9.278;2023-10-19T13:13:17;96726.22;;;15.44;100.00
9969;BME280;5025;48.890;9.278;2023-10-19T13:15:45;96728.16;;;15.44;100.00
9969;BME280;5025;48.890;9.278;2023-10-19T13:18:12;96728.47;;;15.42;100.00
9969;BME280;5025;48.890;9.278;2023-10-19T13:20:52;96726.84;;;15.41;100.00